Adams, TN

12:05 PM CDT on June 30, 2015 (GMT -0500)
JML Farms | | Change Station
CLOSE
Current Station
Personal Weather Station
Location: Springfield, TN
Elevation: 689 ft
Nearby Weather Stations

Elev 689 ft 36.47 °N, 86.97 °W | Updated 8 minutes ago

Clear
Clear
81.0 °F
Feels Like 86 °F
N
2.0
Wind Variable Wind from West
Gusts 7.0 mph

Today
High -- | Low -- °F
--% Chance of Precip.
Yesterday
High -- | Low -- °F
Precip. -- in
5:33 AM 8:10 PM
Waxing Gibbous, 98% visible
Pressure 29.92 in
Visibility 10.0 miles
Clouds Few 3200 ft
Scattered Clouds 13000 ft
Scattered Clouds 15000 ft
Mostly Cloudy 19000 ft
Heat Index 86 °F
Dew Point 74 °F
Humidity 78%
Rainfall 0.00 in
Snow Depth Not available.
UV 6 out of 12
Pollen 3.00 out of 12
Air Quality Not available.
Flu Activity Sporadic
METAR KHOP 301658Z AUTO 24011KT 10SM FEW032 SCT130 SCT150 BKN190 28/21 A2993 RMK AO2 SLP132 T02790211

More Conditions Fewer Conditions

Pressure 29.92 in
Visibility 10.0 miles
Clouds Few 3200 ft
Scattered Clouds 13000 ft
Scattered Clouds 15000 ft
Mostly Cloudy 19000 ft
Heat Index 86 °F
Dew Point 74 °F
Humidity 78%
Rainfall 0.00 in
Snow Depth Not available.
UV 6 out of 12
Pollen 3.00 out of 12
Air Quality Not available.
Flu Activity Sporadic
METAR KHOP 301658Z AUTO 24011KT 10SM FEW032 SCT130 SCT150 BKN190 28/21 A2993 RMK AO2 SLP132 T02790211

More Conditions Fewer Conditions

10-Day Weather Forecast

×

Almanac

Astronomy

Jun. 30, 2015 Rise Set
Actual Time
Civil Twilight
Nautical Twilight
Astronomical Twilight
Moon
Length of Visible Light
Length of Day
Tomorrow will be .
, % of the Moon is Illuminated

Today's Extremes

State Highs State Lows

Community

WunderPhotos

Upload Photos

1,834,046 photos uploaded!

WunderBlogs® & News

Nearby

Air Quality

  Air Quality AQ Index Pollutant
Not available.

Snow Depth

Station Depth Elevation

Earthquake Activity

City Distance Mag. Time & Date
Minimum magnitude displayed is 2.5.

Coastal Water Temperatures

Place Temperature

Stations

Nearby Weather Stations

Station Location Temp. Windchill Dew Point Humidity Wind Precip. Elev Updated Type